Time;durP1;ratioP1;P1;durP2;ratioP2;P2;SDS_P1;SDS_P2;PMS_P1;PMS_P2;Temp;Humidity;BMP_temperature;BMP_pressure;BME280_temperature;BME280_humidity;BME280_pressure;Samples;Min_cycle;Max_cycle;Signal;HPM_P1;HPM_P2
2021/03/01 00:00:34;;;;;;;30.43;20.90;;;6.30;99.90;;;;;;5035945;28;20202;-70
2021/03/01 00:03:00;;;;;;;29.47;19.93;;;6.20;99.90;;;;;;5035993;28;20175;-71
2021/03/01 00:05:25;;;;;;;31.93;21.73;;;6.30;99.90;;;;;;5035990;28;20175;-70
2021/03/01 00:07:51;;;;;;;28.93;21.97;;;6.30;99.90;;;;;;5035498;28;20178;-70
2021/03/01 00:10:18;;;;;;;30.60;20.63;;;6.20;99.90;;;;;;5035862;28;20210;-71
2021/03/01 00:12:45;;;;;;;34.30;22.13;;;6.20;99.90;;;;;;5036349;28;20182;-70
2021/03/01 00:15:14;;;;;;;30.13;20.50;;;6.30;99.90;;;;;;5035791;28;20417;-71
2021/03/01 00:17:40;;;;;;;29.73;19.93;;;6.30;99.90;;;;;;5035495;28;20428;-70
2021/03/01 00:20:08;;;;;;;29.10;20.07;;;6.20;99.90;;;;;;5035739;28;20507;-70
2021/03/01 00:22:34;;;;;;;27.87;20.50;;;6.20;99.90;;;;;;5035919;28;20826;-70
2021/03/01 00:24:59;;;;;;;28.03;20.47;;;6.10;99.90;;;;;;5036262;28;20425;-71
2021/03/01 00:27:25;;;;;;;27.97;20.10;;;6.00;99.90;;;;;;5018137;28;20190;-70
2021/03/01 00:29:50;;;;;;;31.13;20.27;;;5.80;99.90;;;;;;5017341;28;20195;-70
2021/03/01 00:32:16;;;;;;;27.30;19.03;;;5.80;99.90;;;;;;5036217;28;20194;-70
2021/03/01 00:34:42;;;;;;;30.00;21.17;;;5.90;99.90;;;;;;5036247;28;20174;-70
2021/03/01 00:37:07;;;;;;;26.17;19.37;;;5.90;99.90;;;;;;5035566;28;20171;-72
2021/03/01 00:39:33;;;;;;;28.07;20.20;;;5.90;99.90;;;;;;5016807;28;20267;-71
2021/03/01 00:41:58;;;;;;;27.80;18.60;;;5.90;99.90;;;;;;5036162;28;20175;-71
2021/03/01 00:44:24;;;;;;;32.93;20.20;;;6.00;99.90;;;;;;5035803;28;20175;-72
2021/03/01 00:46:49;;;;;;;30.67;19.70;;;6.10;99.90;;;;;;5035654;28;20677;-71
2021/03/01 00:49:15;;;;;;;26.60;20.00;;;6.10;99.90;;;;;;5035050;28;20199;-71
2021/03/01 00:51:41;;;;;;;27.00;19.70;;;6.20;99.90;;;;;;5035445;28;20209;-71
2021/03/01 00:54:07;;;;;;;26.03;19.67;;;6.20;99.90;;;;;;5035709;28;20178;-71
2021/03/01 00:56:32;;;;;;;27.63;18.77;;;6.20;99.90;;;;;;5035283;28;20410;-72
2021/03/01 00:58:58;;;;;;;31.20;19.40;;;6.20;99.90;;;;;;5035297;28;20660;-72
2021/03/01 01:01:23;;;;;;;25.47;19.17;;;6.20;99.90;;;;;;5034943;28;20191;-71
2021/03/01 01:03:49;;;;;;;28.37;19.00;;;6.10;99.90;;;;;;5034956;28;20221;-72
2021/03/01 01:06:14;;;;;;;27.83;19.30;;;6.00;99.90;;;;;;5035027;28;20171;-72
2021/03/01 01:08:40;;;;;;;26.30;18.20;;;6.00;99.90;;;;;;5035187;28;20186;-71
2021/03/01 01:11:05;;;;;;;24.60;18.40;;;6.10;99.90;;;;;;5034698;28;20248;-71
2021/03/01 01:13:31;;;;;;;33.30;20.70;;;6.00;99.90;;;;;;5034725;28;20167;-71
2021/03/01 01:15:58;;;;;;;26.50;19.10;;;6.10;99.90;;;;;;5034863;28;20195;-71
2021/03/01 01:18:25;;;;;;;26.77;19.10;;;6.10;99.90;;;;;;5035317;28;20195;-71
2021/03/01 01:20:51;;;;;;;26.57;18.33;;;6.00;99.90;;;;;;5017094;28;20442;-71
2021/03/01 01:23:16;;;;;;;27.00;18.53;;;5.80;99.90;;;;;;5017088;28;20562;-71
2021/03/01 01:25:42;;;;;;;30.80;19.93;;;5.80;99.90;;;;;;5035011;28;20167;-71
2021/03/01 01:28:07;;;;;;;26.40;17.67;;;5.90;99.90;;;;;;5033507;28;20591;-71
2021/03/01 01:30:33;;;;;;;25.20;18.10;;;5.90;99.90;;;;;;5034742;28;20195;-70
2021/03/01 01:32:59;;;;;;;29.70;19.07;;;6.00;99.90;;;;;;5034334;28;20571;-70
2021/03/01 01:35:25;;;;;;;29.03;20.00;;;5.90;99.90;;;;;;5034771;28;20390;-70
2021/03/01 01:37:50;;;;;;;27.80;18.83;;;5.90;99.90;;;;;;5034241;28;20202;-71
2021/03/01 01:40:19;;;;;;;29.07;20.27;;;6.00;99.90;;;;;;5034386;28;20218;-71
2021/03/01 01:42:46;;;;;;;27.60;19.20;;;6.10;99.90;;;;;;5016923;28;20178;-71
2021/03/01 01:45:14;;;;;;;28.03;19.37;;;6.00;99.90;;;;;;5034473;28;20414;-71
2021/03/01 01:47:40;;;;;;;26.37;18.43;;;5.90;99.90;;;;;;5034743;28;20505;-71
2021/03/01 01:50:07;;;;;;;26.13;18.97;;;5.90;99.90;;;;;;5033588;28;20584;-71
2021/03/01 01:52:33;;;;;;;26.47;17.30;;;6.00;99.90;;;;;;5034326;28;20464;-71
2021/03/01 01:54:59;;;;;;;25.50;18.30;;;6.00;99.90;;;;;;5034407;28;20423;-71
2021/03/01 01:57:26;;;;;;;25.80;18.10;;;5.90;99.90;;;;;;5034634;28;20410;-71
2021/03/01 01:59:52;;;;;;;22.77;17.10;;;6.00;99.90;;;;;;5034061;28;20457;-71
2021/03/01 02:02:17;;;;;;;28.07;20.00;;;6.00;99.90;;;;;;5034136;28;20967;-71
2021/03/01 02:04:56;;;;;;;25.57;16.90;;;6.00;99.90;;;;;;5035055;28;20177;-72
2021/03/01 02:07:43;;;;;;;26.10;17.27;;;6.00;99.90;;;;;;5035901;28;20612;-71
2021/03/01 02:10:10;;;;;;;26.60;18.70;;;5.90;99.90;;;;;;5033755;28;20438;-70
2021/03/01 02:12:51;;;;;;;24.77;17.87;;;5.90;99.90;;;;;;5037992;28;20995;-71
2021/03/01 02:15:53;;;;;;;25.50;17.90;;;5.70;99.90;;;;;;5050339;28;20401;-71
2021/03/01 02:18:18;;;;;;;29.57;17.50;;;5.70;99.90;;;;;;5035897;28;20458;-70
2021/03/01 02:20:48;;;;;;;25.43;17.47;;;5.80;99.90;;;;;;5047909;28;20481;-70
2021/03/01 02:23:15;;;;;;;25.47;17.53;;;5.80;99.90;;;;;;5051123;28;20167;-70
2021/03/01 02:25:55;;;;;;;23.20;17.67;;;5.80;99.90;;;;;;5023890;28;20524;-70
2021/03/01 02:28:25;;;;;;;26.13;17.43;;;5.70;99.90;;;;;;5015950;28;20420;-70
2021/03/01 02:30:56;;;;;;;25.20;16.67;;;5.60;99.90;;;;;;5033938;28;20475;-71
2021/03/01 02:33:26;;;;;;;23.50;16.20;;;5.60;99.90;;;;;;5033976;28;20414;-71
2021/03/01 02:36:01;;;;;;;26.17;16.50;;;5.80;99.90;;;;;;5033746;28;20899;-71
2021/03/01 02:38:29;;;;;;;25.47;18.37;;;5.80;99.90;;;;;;5033064;28;20506;-71
2021/03/01 02:40:57;;;;;;;26.03;17.90;;;5.90;99.90;;;;;;5033684;28;20480;-71
2021/03/01 02:43:25;;;;;;;26.30;18.50;;;6.00;99.90;;;;;;5014524;28;20841;-71
2021/03/01 02:45:51;;;;;;;23.03;16.83;;;6.10;99.90;;;;;;5014056;28;20428;-71
2021/03/01 02:48:18;;;;;;;22.77;17.47;;;6.00;99.90;;;;;;5016051;28;20464;-71
2021/03/01 02:50:46;;;;;;;29.40;18.90;;;6.00;99.90;;;;;;5033441;28;20452;-71
2021/03/01 02:53:17;;;;;;;32.70;18.13;;;6.00;99.90;;;;;;5033557;28;20519;-71
2021/03/01 02:55:44;;;;;;;24.63;17.20;;;6.00;99.90;;;;;;5033555;28;20426;-71
2021/03/01 02:58:11;;;;;;;27.20;17.60;;;6.00;99.90;;;;;;5033595;28;20799;-71
2021/03/01 03:00:39;;;;;;;25.87;17.60;;;6.00;99.90;;;;;;5033815;28;20445;-71
2021/03/01 03:03:07;;;;;;;30.10;18.77;;;6.00;99.90;;;;;;5033543;28;20977;-71
2021/03/01 03:05:33;;;;;;;24.07;17.17;;;6.00;99.90;;;;;;5033692;28;20982;-71
2021/03/01 03:07:59;;;;;;;25.10;17.10;;;6.00;99.90;;;;;;5033108;28;20417;-71
2021/03/01 03:10:25;;;;;;;23.43;17.33;;;6.00;99.90;;;;;;5033324;28;20941;-71
2021/03/01 03:12:52;;;;;;;28.07;18.73;;;6.00;99.90;;;;;;5032883;28;20409;-71
2021/03/01 03:15:20;;;;;;;24.43;16.10;;;6.00;99.90;;;;;;5033203;28;20758;-70
2021/03/01 03:17:46;;;;;;;22.50;16.87;;;6.00;99.90;;;;;;5033203;28;20910;-70
2021/03/01 03:20:12;;;;;;;28.20;19.17;;;6.00;99.90;;;;;;5032771;28;20472;-71
2021/03/01 03:22:38;;;;;;;28.17;18.80;;;6.00;99.90;;;;;;5033292;28;20401;-71
2021/03/01 03:25:05;;;;;;;25.60;17.30;;;5.90;99.90;;;;;;5015169;28;20453;-69
2021/03/01 03:27:31;;;;;;;25.97;17.17;;;6.00;99.90;;;;;;5033609;28;20410;-71
2021/03/01 03:29:56;;;;;;;25.47;16.47;;;6.00;99.90;;;;;;5033232;28;20437;-71
2021/03/01 03:32:22;;;;;;;28.87;19.30;;;6.00;99.90;;;;;;5032973;28;20194;-70
2021/03/01 03:34:48;;;;;;;25.33;16.90;;;5.90;99.90;;;;;;5033053;28;20174;-70
2021/03/01 03:37:31;;;;;;;27.30;17.93;;;5.80;99.90;;;;;;5015261;28;20616;-70
2021/03/01 03:39:58;;;;;;;29.97;19.17;;;5.80;99.90;;;;;;5032932;28;20516;-71
2021/03/01 03:42:27;;;;;;;26.00;16.47;;;5.90;99.90;;;;;;5032836;28;20409;-70
2021/03/01 03:44:54;;;;;;;26.10;17.77;;;5.80;99.90;;;;;;5032800;28;20413;-70
2021/03/01 03:47:22;;;;;;;27.70;18.43;;;5.70;99.90;;;;;;5033060;28;20906;-71
2021/03/01 03:49:49;;;;;;;26.57;18.77;;;5.60;99.90;;;;;;5033105;28;20430;-71
2021/03/01 03:52:15;;;;;;;24.53;17.60;;;5.70;99.90;;;;;;5036290;28;20394;-71
2021/03/01 03:54:46;;;;;;;27.23;18.97;;;5.60;99.90;;;;;;5036480;28;20424;-71
2021/03/01 03:57:18;;;;;;;25.13;18.07;;;5.70;99.90;;;;;;5035486;28;20929;-71
2021/03/01 03:59:45;;;;;;;27.00;17.30;;;5.70;99.90;;;;;;5036269;28;20460;-70
2021/03/01 04:02:14;;;;;;;25.10;17.97;;;5.70;99.90;;;;;;5037074;28;20437;-70
2021/03/01 04:04:42;;;;;;;25.60;17.77;;;5.80;99.90;;;;;;5036896;28;20398;-71
2021/03/01 04:07:08;;;;;;;27.33;17.37;;;5.90;99.90;;;;;;5036295;28;20957;-71
2021/03/01 04:09:38;;;;;;;22.60;16.63;;;6.00;99.90;;;;;;5036081;28;20441;-71
2021/03/01 04:12:05;;;;;;;21.90;15.50;;;6.00;99.90;;;;;;5036188;28;20483;-71
2021/03/01 04:14:32;;;;;;;23.97;15.87;;;6.00;99.90;;;;;;5036624;28;20413;-71
2021/03/01 04:16:59;;;;;;;22.13;16.40;;;6.10;99.90;;;;;;5035550;28;20449;-71
2021/03/01 04:19:27;;;;;;;21.00;14.80;;;6.00;99.90;;;;;;5036026;28;20572;-70
2021/03/01 04:21:56;;;;;;;20.30;16.30;;;6.00;99.90;;;;;;5036482;28;20533;-70
2021/03/01 04:24:23;;;;;;;21.10;14.87;;;6.00;99.90;;;;;;5036063;28;20405;-70
2021/03/01 04:26:49;;;;;;;22.23;14.90;;;6.00;99.90;;;;;;5035907;28;20426;-71
2021/03/01 04:29:16;;;;;;;23.77;15.87;;;6.00;99.90;;;;;;5035521;28;20495;-70
2021/03/01 04:31:44;;;;;;;20.43;15.57;;;6.00;99.90;;;;;;5035836;28;20441;-70
2021/03/01 04:34:11;;;;;;;21.70;15.53;;;6.00;99.90;;;;;;5036016;28;20501;-71
2021/03/01 04:36:37;;;;;;;23.70;15.70;;;6.00;99.90;;;;;;5035923;28;20459;-70
2021/03/01 04:39:05;;;;;;;20.20;14.23;;;6.00;99.90;;;;;;5035054;28;20445;-70
2021/03/01 04:41:35;;;;;;;26.10;16.50;;;5.90;99.90;;;;;;5035646;28;20488;-70
2021/03/01 04:44:05;;;;;;;21.87;16.37;;;5.90;99.90;;;;;;5035870;28;20417;-70
2021/03/01 04:46:32;;;;;;;23.73;17.13;;;5.90;99.90;;;;;;5034690;28;20430;-70
2021/03/01 04:49:01;;;;;;;24.90;16.37;;;5.90;99.90;;;;;;5035094;28;20414;-70
2021/03/01 04:51:28;;;;;;;21.80;15.53;;;6.00;99.90;;;;;;5035495;28;20430;-70
2021/03/01 04:53:55;;;;;;;21.70;15.70;;;6.00;99.90;;;;;;5035399;28;20413;-71
2021/03/01 04:56:22;;;;;;;25.13;15.53;;;6.00;99.90;;;;;;5035778;28;20417;-70
2021/03/01 04:58:48;;;;;;;25.13;16.30;;;5.90;99.90;;;;;;5034876;28;20441;-70
2021/03/01 05:01:15;;;;;;;20.97;15.17;;;5.70;99.90;;;;;;5034863;28;20444;-70
2021/03/01 05:03:41;;;;;;;22.33;15.30;;;5.70;99.90;;;;;;5035312;28;20597;-70
2021/03/01 05:06:07;;;;;;;21.07;15.00;;;5.70;99.90;;;;;;5035320;28;20406;-70
2021/03/01 05:08:34;;;;;;;23.57;15.90;;;5.60;99.90;;;;;;5035090;28;20786;-70
2021/03/01 05:11:05;;;;;;;21.40;15.07;;;5.60;99.90;;;;;;5035297;28;20512;-70
2021/03/01 05:13:30;;;;;;;21.17;14.73;;;5.70;99.90;;;;;;5034568;28;20445;-70
2021/03/01 05:15:56;;;;;;;24.87;15.70;;;5.70;99.90;;;;;;5034968;28;20423;-70
2021/03/01 05:18:21;;;;;;;22.67;14.90;;;5.70;99.90;;;;;;5034665;28;20209;-70
2021/03/01 05:20:47;;;;;;;20.93;14.77;;;5.70;99.90;;;;;;5034300;28;20743;-70
2021/03/01 05:23:13;;;;;;;18.93;14.13;;;5.70;99.90;;;;;;5017131;28;20171;-71
2021/03/01 05:25:38;;;;;;;20.73;14.47;;;5.60;99.90;;;;;;5035232;28;20198;-71
2021/03/01 05:28:04;;;;;;;22.57;15.63;;;5.70;99.90;;;;;;5035054;28;20231;-70
2021/03/01 05:30:29;;;;;;;18.00;14.17;;;5.80;99.90;;;;;;5034679;28;20183;-70
2021/03/01 05:32:55;;;;;;;19.63;14.13;;;5.60;99.90;;;;;;5017636;28;20437;-70
2021/03/01 05:35:21;;;;;;;22.20;14.40;;;5.40;99.90;;;;;;5018161;28;20644;-71
2021/03/01 05:37:46;;;;;;;21.57;14.50;;;5.40;99.90;;;;;;5035373;28;20629;-70
2021/03/01 05:40:12;;;;;;;19.50;14.37;;;5.40;99.90;;;;;;5043899;28;20589;-70
2021/03/01 05:42:40;;;;;;;20.30;13.40;;;5.40;99.90;;;;;;5051363;28;20191;-70
2021/03/01 05:45:08;;;;;;;23.83;15.73;;;5.40;99.90;;;;;;5037388;28;20413;-70
2021/03/01 05:47:35;;;;;;;17.77;14.33;;;5.40;99.90;;;;;;5041219;28;20495;-71
2021/03/01 05:50:03;;;;;;;20.17;13.87;;;5.40;99.90;;;;;;5039704;28;20445;-69
2021/03/01 05:52:29;;;;;;;20.90;14.30;;;5.40;99.90;;;;;;5030253;28;20438;-69
2021/03/01 05:54:56;;;;;;;20.93;15.10;;;5.40;99.90;;;;;;5027349;28;20621;-70
2021/03/01 05:57:23;;;;;;;22.30;15.13;;;5.30;99.90;;;;;;5019381;28;20855;-70
2021/03/01 05:59:49;;;;;;;24.43;15.20;;;5.40;99.90;;;;;;5027544;28;20492;-70
2021/03/01 06:02:19;;;;;;;20.70;13.43;;;5.40;99.90;;;;;;5026512;28;20429;-70
2021/03/01 06:04:45;;;;;;;18.20;13.27;;;5.40;99.90;;;;;;5023152;28;21129;-70
2021/03/01 06:07:11;;;;;;;17.50;12.60;;;5.40;99.90;;;;;;5021910;28;20504;-70
2021/03/01 06:09:36;;;;;;;16.00;11.60;;;5.30;99.90;;;;;;5029895;28;20224;-70
2021/03/01 06:12:02;;;;;;;18.90;12.83;;;5.30;99.90;;;;;;5022565;28;20233;-71
2021/03/01 06:14:28;;;;;;;17.30;12.40;;;5.40;99.90;;;;;;5021326;28;20194;-70
2021/03/01 06:17:15;;;;;;;18.40;12.83;;;5.40;99.90;;;;;;5023387;28;20688;-71
2021/03/01 06:19:47;;;;;;;17.87;12.10;;;5.50;99.90;;;;;;5033684;28;20285;-71
2021/03/01 06:22:13;;;;;;;17.43;12.03;;;5.40;99.90;;;;;;5034398;28;20938;-71
2021/03/01 06:24:39;;;;;;;20.53;14.53;;;5.40;99.90;;;;;;5033730;28;20412;-71
2021/03/01 06:27:07;;;;;;;17.73;12.00;;;5.40;99.90;;;;;;5033790;28;20714;-71
2021/03/01 06:29:32;;;;;;;18.30;13.20;;;5.40;99.90;;;;;;5031936;28;20464;-71
2021/03/01 06:31:58;;;;;;;23.73;15.20;;;5.40;99.90;;;;;;5021816;28;20472;-70
2021/03/01 06:34:32;;;;;;;19.77;15.10;;;5.40;99.90;;;;;;5011483;28;20183;-71
2021/03/01 06:37:17;;;;;;;21.83;15.47;;;5.50;99.90;;;;;;5020369;28;20185;-72
2021/03/01 06:39:47;;;;;;;18.53;13.53;;;5.50;99.90;;;;;;5030560;28;20845;-71
2021/03/01 06:42:16;;;;;;;19.90;13.40;;;5.40;99.90;;;;;;5027069;28;21291;-71
2021/03/01 06:44:54;;;;;;;18.83;12.67;;;5.50;99.90;;;;;;5029105;28;20424;-71
2021/03/01 06:47:19;;;;;;;18.67;13.63;;;5.50;99.90;;;;;;5025366;28;20425;-71
2021/03/01 06:49:45;;;;;;;16.97;12.67;;;5.50;99.90;;;;;;5026197;28;20488;-71
2021/03/01 06:52:40;;;;;;;15.93;12.03;;;5.50;99.90;;;;;;5030658;28;20683;-72
2021/03/01 06:55:12;;;;;;;17.90;12.40;;;5.50;99.90;;;;;;5025651;28;20186;-70
2021/03/01 06:57:38;;;;;;;16.90;12.10;;;5.50;99.90;;;;;;5022638;28;20433;-72
2021/03/01 07:00:05;;;;;;;18.30;13.97;;;5.50;99.90;;;;;;5025663;28;20481;-72
2021/03/01 07:02:40;;;;;;;18.07;12.70;;;5.50;99.90;;;;;;5028513;28;20437;-72
2021/03/01 07:05:08;;;;;;;18.77;13.13;;;5.40;99.90;;;;;;5027084;28;20409;-71
2021/03/01 07:07:38;;;;;;;17.87;12.20;;;5.50;99.90;;;;;;5025092;28;20428;-72
2021/03/01 07:10:06;;;;;;;17.57;12.50;;;5.50;99.90;;;;;;5016643;28;20464;-71
2021/03/01 07:12:48;;;;;;;18.73;13.70;;;5.60;99.90;;;;;;5011841;28;20399;-71
2021/03/01 07:15:15;;;;;;;19.17;12.63;;;5.60;99.90;;;;;;5026471;28;20774;-72
2021/03/01 07:17:42;;;;;;;15.57;12.40;;;5.60;99.90;;;;;;5033620;28;20417;-71
2021/03/01 07:20:11;;;;;;;18.13;13.10;;;5.60;99.90;;;;;;5032851;28;20557;-72
2021/03/01 07:22:44;;;;;;;18.03;13.20;;;5.60;99.90;;;;;;5034151;28;20460;-72
2021/03/01 07:25:13;;;;;;;14.97;12.27;;;5.70;99.90;;;;;;5034512;28;20421;-72
2021/03/01 07:27:41;;;;;;;18.47;12.57;;;5.70;99.90;;;;;;5019275;28;20417;-71
2021/03/01 07:30:09;;;;;;;16.97;12.57;;;5.70;99.90;;;;;;5036595;28;20449;-70
2021/03/01 07:32:38;;;;;;;17.70;13.50;;;5.70;99.90;;;;;;5036827;28;20985;-71
2021/03/01 07:35:08;;;;;;;19.30;13.20;;;5.80;99.90;;;;;;5037061;28;20420;-71
2021/03/01 07:37:37;;;;;;;20.13;13.80;;;5.80;99.90;;;;;;5037538;28;20409;-70
2021/03/01 07:40:07;;;;;;;15.87;12.33;;;5.90;99.90;;;;;;5036696;28;20472;-71
2021/03/01 07:42:36;;;;;;;18.47;13.00;;;5.90;99.90;;;;;;5036662;28;20481;-71
2021/03/01 07:45:02;;;;;;;16.63;12.50;;;5.90;99.90;;;;;;5037152;28;20426;-72
2021/03/01 07:47:29;;;;;;;18.93;13.10;;;6.00;99.90;;;;;;5036398;28;21008;-71
2021/03/01 07:49:55;;;;;;;18.40;13.60;;;6.00;99.90;;;;;;5036541;28;20487;-71
2021/03/01 07:52:21;;;;;;;17.37;12.83;;;6.00;99.90;;;;;;5036643;28;21008;-71
2021/03/01 07:54:52;;;;;;;16.83;12.30;;;6.00;99.90;;;;;;5036659;28;20497;-71
2021/03/01 07:57:22;;;;;;;16.40;11.63;;;6.10;99.90;;;;;;5036613;28;20225;-71
2021/03/01 07:59:48;;;;;;;16.20;12.20;;;6.10;99.90;;;;;;5036428;28;20507;-71
2021/03/01 08:02:20;;;;;;;15.93;12.10;;;6.20;99.90;;;;;;5036716;28;20402;-71
2021/03/01 08:04:45;;;;;;;15.10;12.50;;;6.20;99.90;;;;;;5036321;28;20175;-71
2021/03/01 08:07:11;;;;;;;15.87;11.87;;;6.20;99.90;;;;;;5036598;28;20907;-72
2021/03/01 08:09:44;;;;;;;16.90;12.37;;;6.20;99.90;;;;;;5036024;28;20191;-72
2021/03/01 08:12:11;;;;;;;17.80;13.70;;;6.20;99.90;;;;;;5018288;28;20174;-72
2021/03/01 08:14:49;;;;;;;18.73;13.50;;;6.20;99.90;;;;;;5036885;28;20840;-72
2021/03/01 08:17:29;;;;;;;19.03;13.07;;;5.90;99.90;;;;;;5036496;28;20405;-72
2021/03/01 08:19:56;;;;;;;19.23;13.23;;;5.80;99.90;;;;;;5035682;28;20499;-71
2021/03/01 08:22:22;;;;;;;17.10;11.80;;;5.90;99.90;;;;;;5018110;28;20414;-70
2021/03/01 08:24:49;;;;;;;16.43;12.53;;;5.90;99.90;;;;;;5035760;28;20426;-72
2021/03/01 08:27:41;;;;;;;16.37;11.63;;;6.00;99.90;;;;;;5036091;28;20171;-71
2021/03/01 08:30:22;;;;;;;16.37;11.10;;;5.90;99.90;;;;;;5033476;28;20438;-72
2021/03/01 08:33:10;;;;;;;14.57;11.93;;;6.00;99.90;;;;;;5035966;28;20433;-72
2021/03/01 08:35:42;;;;;;;17.23;11.63;;;6.10;99.90;;;;;;5036147;28;20409;-72
2021/03/01 08:38:09;;;;;;;17.13;11.20;;;6.20;99.90;;;;;;5035449;28;20767;-72
2021/03/01 08:40:35;;;;;;;16.27;11.33;;;6.30;99.90;;;;;;5035344;28;20434;-72
2021/03/01 08:43:06;;;;;;;16.30;11.77;;;6.20;99.90;;;;;;5017741;28;20406;-72
2021/03/01 08:45:40;;;;;;;16.37;11.83;;;6.10;99.90;;;;;;5035499;28;20500;-72
2021/03/01 08:48:08;;;;;;;16.50;11.57;;;6.20;99.90;;;;;;5019734;28;20794;-72
2021/03/01 08:50:37;;;;;;;18.17;12.27;;;6.30;99.90;;;;;;5035641;28;20426;-72
2021/03/01 08:53:02;;;;;;;16.37;12.53;;;6.30;99.90;;;;;;5036577;28;20397;-72
2021/03/01 08:55:29;;;;;;;15.40;12.87;;;6.30;99.90;;;;;;5035070;28;20425;-72
2021/03/01 08:58:10;;;;;;;16.43;12.10;;;6.40;99.90;;;;;;5035199;28;20207;-72
2021/03/01 09:00:55;;;;;;;16.03;11.80;;;6.50;99.90;;;;;;5035343;28;20440;-71
2021/03/01 09:03:25;;;;;;;15.70;11.10;;;6.60;99.90;;;;;;5035675;28;20482;-70
2021/03/01 09:05:52;;;;;;;15.23;11.13;;;6.60;99.90;;;;;;5035792;28;20445;-72
2021/03/01 09:08:26;;;;;;;14.13;10.47;;;6.50;99.90;;;;;;5035610;28;20476;-72
2021/03/01 09:10:52;;;;;;;14.40;11.00;;;6.60;99.90;;;;;;5036610;28;20417;-71
2021/03/01 09:13:20;;;;;;;14.90;10.77;;;6.60;99.90;;;;;;5036878;28;20409;-72
2021/03/01 09:15:46;;;;;;;13.40;10.37;;;6.50;99.90;;;;;;5044089;28;20178;-72
2021/03/01 09:18:13;;;;;;;17.10;11.67;;;6.40;99.90;;;;;;5048931;28;20469;-72
2021/03/01 09:20:44;;;;;;;17.23;11.40;;;6.40;99.90;;;;;;5038642;28;20432;-72
2021/03/01 09:23:10;;;;;;;13.80;10.80;;;6.40;99.90;;;;;;5045458;28;20465;-72
2021/03/01 09:25:36;;;;;;;16.17;12.43;;;6.40;99.90;;;;;;5044433;28;20418;-72
2021/03/01 09:28:02;;;;;;;15.80;12.13;;;6.50;99.90;;;;;;5041927;28;20515;-72
2021/03/01 09:30:28;;;;;;;16.63;12.43;;;6.60;99.90;;;;;;5035160;28;20422;-72
2021/03/01 09:32:58;;;;;;;16.53;12.27;;;6.70;99.90;;;;;;5034511;28;20439;-72
2021/03/01 09:35:25;;;;;;;17.40;13.03;;;6.60;99.90;;;;;;5035189;28;20668;-73
2021/03/01 09:37:51;;;;;;;18.40;12.60;;;6.60;99.90;;;;;;5034333;28;20434;-71
2021/03/01 09:40:19;;;;;;;19.57;13.30;;;6.60;99.90;;;;;;5034823;28;20485;-71
2021/03/01 09:42:54;;;;;;;16.63;12.57;;;6.60;99.90;;;;;;5035040;28;20417;-72
2021/03/01 09:45:21;;;;;;;22.13;12.73;;;6.50;99.90;;;;;;5035106;28;20579;-72
2021/03/01 09:47:49;;;;;;;16.17;12.90;;;6.50;99.90;;;;;;5034352;28;20430;-72
2021/03/01 09:50:16;;;;;;;19.30;11.67;;;6.50;99.90;;;;;;5034154;28;20429;-72
2021/03/01 09:52:44;;;;;;;14.60;11.97;;;6.50;99.90;;;;;;5034171;28;20496;-72
2021/03/01 09:55:10;;;;;;;14.60;11.90;;;6.60;99.90;;;;;;5033580;28;20416;-72
2021/03/01 09:57:35;;;;;;;17.50;12.60;;;6.70;99.90;;;;;;5034139;28;20445;-72
2021/03/01 10:00:29;;;;;;;25.03;14.30;;;6.80;99.90;;;;;;5014686;28;20302;-71
2021/03/01 10:03:04;;;;;;;16.60;11.60;;;7.00;99.90;;;;;;5016950;28;20333;-72
2021/03/01 10:05:32;;;;;;;16.13;12.00;;;7.20;99.90;;;;;;5034497;28;20436;-72
2021/03/01 10:08:03;;;;;;;16.80;11.70;;;7.40;99.90;;;;;;5033969;28;20405;-72
2021/03/01 10:10:40;;;;;;;15.33;11.20;;;7.50;99.90;;;;;;5033825;28;20479;-72
2021/03/01 10:13:07;;;;;;;12.80;10.60;;;7.60;99.90;;;;;;5033675;28;20416;-71
2021/03/01 10:15:46;;;;;;;15.47;11.37;;;7.60;99.90;;;;;;5034863;28;20828;-72
2021/03/01 10:18:14;;;;;;;14.97;11.50;;;7.80;99.90;;;;;;5016084;28;20834;-71
2021/03/01 10:20:55;;;;;;;13.90;10.70;;;7.90;99.90;;;;;;5034024;28;20462;-72
2021/03/01 10:23:28;;;;;;;17.13;11.90;;;7.90;99.90;;;;;;5034502;28;20868;-71
2021/03/01 10:26:17;;;;;;;13.80;11.37;;;8.00;99.90;;;;;;5033586;28;20481;-71
2021/03/01 10:29:03;;;;;;;14.13;11.67;;;8.10;99.90;;;;;;5034036;28;20904;-71
2021/03/01 10:31:37;;;;;;;13.37;11.00;;;8.20;99.90;;;;;;5033950;28;20864;-71
2021/03/01 10:34:08;;;;;;;12.77;10.80;;;8.40;99.90;;;;;;5034313;28;21016;-73
2021/03/01 10:36:48;;;;;;;15.77;12.30;;;8.40;99.90;;;;;;5034150;28;20879;-72
2021/03/01 10:39:18;;;;;;;14.53;11.37;;;8.60;99.90;;;;;;5034032;28;20555;-72
2021/03/01 10:42:12;;;;;;;13.90;10.70;;;8.70;99.90;;;;;;5034404;28;20422;-72
2021/03/01 10:44:41;;;;;;;14.77;12.00;;;8.70;99.90;;;;;;5035732;28;20413;-71
2021/03/01 10:47:17;;;;;;;18.50;12.13;;;8.60;99.90;;;;;;5018725;28;20416;-70
2021/03/01 10:49:44;;;;;;;19.57;12.47;;;8.70;99.90;;;;;;5016754;28;20452;-71
2021/03/01 10:52:10;;;;;;;17.50;13.10;;;8.70;99.90;;;;;;5033106;28;20405;-72
2021/03/01 10:54:37;;;;;;;12.60;11.30;;;8.80;99.90;;;;;;5015804;28;20979;-72
2021/03/01 10:57:03;;;;;;;15.63;11.80;;;8.90;99.90;;;;;;5033577;28;20455;-72
2021/03/01 10:59:29;;;;;;;13.40;11.07;;;9.00;99.90;;;;;;5033272;28;20972;-72
2021/03/01 11:01:54;;;;;;;13.70;11.03;;;9.10;99.90;;;;;;5037590;28;20424;-72
2021/03/01 11:04:20;;;;;;;11.83;10.57;;;9.20;99.90;;;;;;5020291;28;20257;-72
2021/03/01 11:06:47;;;;;;;12.33;10.83;;;9.10;99.90;;;;;;5037807;28;20178;-71
2021/03/01 11:09:13;;;;;;;15.30;12.00;;;9.20;99.90;;;;;;5037714;28;20305;-71
2021/03/01 11:11:40;;;;;;;11.93;10.63;;;9.40;99.90;;;;;;5037987;28;20496;-72
2021/03/01 11:14:07;;;;;;;12.83;10.93;;;9.50;99.90;;;;;;5036881;28;20425;-72
2021/03/01 11:16:32;;;;;;;14.13;11.50;;;9.60;99.90;;;;;;5036096;28;20417;-71
2021/03/01 11:18:58;;;;;;;14.73;11.00;;;9.70;99.90;;;;;;5018571;28;20464;-71
2021/03/01 11:21:24;;;;;;;14.90;11.70;;;9.80;99.90;;;;;;5036503;28;20194;-71
2021/03/01 11:23:49;;;;;;;11.23;10.13;;;9.90;99.90;;;;;;5036425;28;20189;-73
2021/03/01 11:26:15;;;;;;;16.40;11.60;;;9.90;99.90;;;;;;5035394;28;20269;-72
2021/03/01 11:28:42;;;;;;;12.10;9.80;;;9.90;99.90;;;;;;5017951;28;20320;-71
2021/03/01 11:31:08;;;;;;;13.70;10.57;;;10.00;99.90;;;;;;5035811;28;20221;-72
2021/03/01 11:33:33;;;;;;;15.43;11.33;;;10.00;99.90;;;;;;5035914;28;20433;-71
2021/03/01 11:35:59;;;;;;;11.83;10.40;;;10.00;99.90;;;;;;5036031;28;20781;-72
2021/03/01 11:38:25;;;;;;;14.80;11.57;;;10.10;99.90;;;;;;5035775;28;20507;-72
2021/03/01 11:40:55;;;;;;;15.87;11.30;;;10.20;99.90;;;;;;5035023;28;20298;-72
2021/03/01 11:43:20;;;;;;;12.50;10.40;;;10.20;99.90;;;;;;5034875;28;20484;-71
2021/03/01 11:45:46;;;;;;;13.20;10.47;;;10.30;99.90;;;;;;5036091;28;20449;-71
2021/03/01 11:48:14;;;;;;;13.03;10.70;;;10.30;99.90;;;;;;5036289;28;20545;-71
2021/03/01 11:50:42;;;;;;;12.03;10.77;;;10.40;99.90;;;;;;5019839;28;20608;-72
2021/03/01 11:53:08;;;;;;;12.30;11.00;;;10.40;99.90;;;;;;5035051;28;20444;-72
2021/03/01 11:55:37;;;;;;;18.60;10.57;;;10.40;99.90;;;;;;5033990;28;20425;-72
2021/03/01 11:58:03;;;;;;;13.83;9.93;;;10.50;99.90;;;;;;5035232;28;20492;-72
2021/03/01 12:00:29;;;;;;;11.93;10.50;;;10.60;99.90;;;;;;5017479;28;20588;-72
2021/03/01 12:02:54;;;;;;;16.20;11.53;;;10.50;99.90;;;;;;5017554;28;20273;-72
2021/03/01 12:05:20;;;;;;;15.47;11.43;;;10.40;99.90;;;;;;5034661;28;20512;-72
2021/03/01 12:07:45;;;;;;;12.27;10.63;;;10.40;99.90;;;;;;5035087;28;20190;-73
2021/03/01 12:10:12;;;;;;;13.90;11.10;;;10.40;99.90;;;;;;5034894;28;20203;-71
2021/03/01 12:12:38;;;;;;;13.30;11.57;;;10.40;99.90;;;;;;5033430;28;20256;-72
2021/03/01 12:15:06;;;;;;;18.47;11.93;;;10.40;99.90;;;;;;5034854;28;20520;-71
2021/03/01 12:17:31;;;;;;;15.63;11.70;;;10.40;99.90;;;;;;5034188;28;20476;-72
2021/03/01 12:19:57;;;;;;;12.90;10.17;;;10.40;99.90;;;;;;5034315;28;20518;-72
2021/03/01 12:22:22;;;;;;;17.53;11.57;;;10.40;99.90;;;;;;5016641;28;20195;-71
2021/03/01 12:24:48;;;;;;;14.17;11.67;;;10.50;99.90;;;;;;5016772;28;20185;-71
2021/03/01 12:27:13;;;;;;;15.20;11.50;;;10.50;99.90;;;;;;5034667;28;20221;-72
2021/03/01 12:29:39;;;;;;;14.50;11.73;;;10.50;99.90;;;;;;5034081;28;20274;-72
2021/03/01 12:32:05;;;;;;;11.70;10.37;;;10.50;99.90;;;;;;5034284;28;20294;-71
2021/03/01 12:34:31;;;;;;;13.20;10.43;;;10.50;99.90;;;;;;5034201;28;20177;-72
2021/03/01 12:36:56;;;;;;;14.20;10.43;;;10.50;99.90;;;;;;5034086;28;20812;-71
2021/03/01 12:39:22;;;;;;;16.27;10.80;;;10.60;99.90;;;;;;5034394;28;20264;-71
2021/03/01 12:41:47;;;;;;;11.60;10.23;;;10.60;99.90;;;;;;5035334;28;20214;-71